Aeroporto :







RITROVATECI SU...

 
LOGIN :

Iscrizione | Disclaimer

   EN    FR    IT 

 









Sommario :    VFR   VFR Marginale   IFR   IFR Intensivo   IFR Molto Intensivo
Visibilità : 
Base nubi : 
>= 8 km
>= 3000ft
5 / 8 km
1000 / 3000 ft
1500m / 5 km
500 / 1000 ft
800 / 1500m
200 / 500 ft
< 800m
< 200 ft
Simboli :   Temporali  Nebbia  Neve Forte  Precipitazioni Forti  Vento > 20 kt






- Altitudine del aeroporto : 74 ft
- Codice IATA : STX


TISX - Henri E Rohlsen

ULTIMO METAR :
  • 300653Z AUTO 06009KT 10SM FEW060 24/18 A3002 RMK AO2 SLP165 T02440183 $

METARs OBSOLETI :
  • 300553Z AUTO 05009KT 10SM FEW028 FEW060 24/19 A3004 RMK AO2 SLP169 T02440194 10250 20239 58019 $
  • 300453Z AUTO 05009KT 10SM CLR 24/19 A3006 RMK AO2 SLP177 T02440189 $

TAF TISX
Valido dal 30 a 06 ore il 31 a 06 ore UTC


300539Z 3006/3106 05010KT P6SM FEW026 FEW035
FM301300 06017KT P6SM SCT040
FM302300 05010KT P6SM FEW060



MetMap, La meteo Aeronautica in un colpo d'occhio ! - Copyright ORBIFLY Dicembre 2007 - Disclaimer

ORBIFLY MET'MAP TEAM :

Programmazione e sviluppo : Alexandra Zaïnal
Concezione : Baudouin d'Aumeries
Aiuto per la programmazione : Marc-Olivier Méhu
Supporto tecnico e logistico : Manuel Goepfert
Aiuto per la traduzione : Arnaldo La Scala

Contatto : metmap@orbifly.com




FONTI E CREDITI :

   NOAA